Time;durP1;ratioP1;P1;durP2;ratioP2;P2;SDS_P1;SDS_P2;PMS_P1;PMS_P2;Temp;Humidity;BMP_temperature;BMP_pressure;BME280_temperature;BME280_humidity;BME280_pressure;Samples;Min_cycle;Max_cycle;Signal;HPM_P1;HPM_P2
2024/01/27 00:02:08;;;;;;;;;;;;;;;12.47;76.99;101787.78;10297242;28;96986;-79
2024/01/27 00:07:11;;;;;;;;;;;;;;;12.41;77.14;101785.25;10297755;28;96845;-79
2024/01/27 00:12:15;;;;;;;;;;;;;;;12.33;77.54;101792.50;10311346;28;96815;-79
2024/01/27 00:17:23;;;;;;;;;;;;;;;12.34;77.38;101774.91;10320443;28;96805;-79
2024/01/27 00:22:27;;;;;;;;;;;;;;;12.30;77.50;101775.88;10326482;28;96844;-79
2024/01/27 00:27:30;;;;;;;;;;;;;;;12.35;77.13;101752.88;10306082;28;97552;-79
2024/01/27 00:32:34;;;;;;;;;;;;;;;12.31;76.98;101764.38;10301414;28;98271;-79
2024/01/27 00:37:38;;;;;;;;;;;;;;;12.27;77.16;101760.09;10293459;28;98738;-79
2024/01/27 00:42:41;;;;;;;;;;;;;;;12.25;77.07;101769.81;10294618;28;96720;-79
2024/01/27 00:47:46;;;;;;;;;;;;;;;12.17;77.28;101748.00;10286488;28;96781;-79
2024/01/27 00:52:49;;;;;;;;;;;;;;;12.10;77.63;101756.97;10299186;28;96738;-79
2024/01/27 00:57:53;;;;;;;;;;;;;;;12.09;77.80;101756.09;10313649;28;96793;-79
2024/01/27 01:02:58;;;;;;;;;;;;;;;12.13;77.91;101744.56;10298071;28;97406;-79
2024/01/27 01:08:01;;;;;;;;;;;;;;;12.10;77.74;101746.41;10291737;28;96605;-79
2024/01/27 01:13:04;;;;;;;;;;;;;;;12.10;77.59;101742.00;10297508;28;97059;-79
2024/01/27 01:18:09;;;;;;;;;;;;;;;12.03;77.74;101743.03;10303312;28;96861;-79
2024/01/27 01:23:12;;;;;;;;;;;;;;;11.96;78.38;101735.28;10293291;28;96928;-79
2024/01/27 01:28:15;;;;;;;;;;;;;;;11.93;78.02;101730.06;10303659;28;98643;-79
2024/01/27 01:33:20;;;;;;;;;;;;;;;11.93;78.08;101730.94;10314198;28;96793;-80
2024/01/27 01:38:23;;;;;;;;;;;;;;;11.97;77.43;101731.75;10308541;28;96835;-79
2024/01/27 01:43:26;;;;;;;;;;;;;;;11.90;77.97;101725.75;10307229;28;96867;-79
2024/01/27 01:48:31;;;;;;;;;;;;;;;11.87;78.16;101727.56;10317804;28;98544;-79
2024/01/27 01:53:35;;;;;;;;;;;;;;;11.87;77.89;101725.81;10296038;28;96703;-79
2024/01/27 01:58:38;;;;;;;;;;;;;;;11.83;78.06;101715.34;10308399;28;96817;-78
2024/01/27 02:03:52;;;;;;;;;;;;;;;11.72;78.43;101712.09;10315680;28;96746;-78
2024/01/27 02:08:55;;;;;;;;;;;;;;;11.79;78.09;101711.91;10315260;28;96696;-79
2024/01/27 02:13:58;;;;;;;;;;;;;;;11.77;78.34;101713.69;10305346;28;96864;-79
2024/01/27 02:19:03;;;;;;;;;;;;;;;11.72;78.03;101704.19;10304132;28;96847;-79
2024/01/27 02:24:10;;;;;;;;;;;;;;;11.70;78.14;101705.97;10322775;28;96953;-79
2024/01/27 02:29:13;;;;;;;;;;;;;;;11.69;78.32;101702.47;10305653;28;96734;-79
2024/01/27 02:34:16;;;;;;;;;;;;;;;11.63;78.51;101704.38;10316390;28;96858;-79
2024/01/27 02:39:21;;;;;;;;;;;;;;;11.65;78.47;101702.56;10324323;28;96806;-79
2024/01/27 02:44:25;;;;;;;;;;;;;;;11.64;78.46;101698.19;10314075;28;97184;-79
2024/01/27 02:49:28;;;;;;;;;;;;;;;11.59;78.88;101692.13;10305165;28;96784;-79
2024/01/27 02:54:33;;;;;;;;;;;;;;;11.54;78.72;101688.72;10313622;28;96834;-78
2024/01/27 02:59:38;;;;;;;;;;;;;;;11.50;78.92;101693.19;10315970;28;98530;-78
2024/01/27 03:04:41;;;;;;;;;;;;;;;11.58;78.42;101695.69;10322823;28;97173;-79
2024/01/27 03:09:46;;;;;;;;;;;;;;;11.52;78.97;101680.84;10328414;28;96897;-79
2024/01/27 03:14:50;;;;;;;;;;;;;;;11.47;78.82;101684.47;10306395;28;96840;-79
2024/01/27 03:19:54;;;;;;;;;;;;;;;11.52;78.68;101680.84;10303164;28;96852;-79
2024/01/27 03:24:59;;;;;;;;;;;;;;;11.47;78.72;101671.31;10292282;28;96880;-79
2024/01/27 03:30:03;;;;;;;;;;;;;;;11.45;78.57;101678.38;10303590;28;96848;-78
2024/01/27 03:35:07;;;;;;;;;;;;;;;11.44;78.82;101672.25;10314375;28;96928;-79
2024/01/27 03:40:12;;;;;;;;;;;;;;;11.46;78.97;101666.94;10325773;28;96842;-78
2024/01/27 03:45:15;;;;;;;;;;;;;;;11.45;79.01;101667.81;10323533;28;97019;-78
2024/01/27 03:50:19;;;;;;;;;;;;;;;11.42;78.80;101655.59;10308673;28;98104;-78
2024/01/27 03:55:23;;;;;;;;;;;;;;;11.36;78.59;101656.59;10299783;28;96787;-79
2024/01/27 04:00:27;;;;;;;;;;;;;;;11.37;78.59;101660.94;10292880;28;96878;-78
2024/01/27 04:05:31;;;;;;;;;;;;;;;11.39;78.30;101648.59;10301360;28;96831;-79
2024/01/27 04:10:37;;;;;;;;;;;;;;;11.39;78.44;101651.25;10316304;28;97064;-79
2024/01/27 04:15:40;;;;;;;;;;;;;;;11.32;79.07;101652.25;10313624;28;96940;-78
2024/01/27 04:20:43;;;;;;;;;;;;;;;11.31;79.12;101654.94;10303826;28;96730;-79
2024/01/27 04:25:48;;;;;;;;;;;;;;;11.30;79.00;101653.22;10296253;28;99021;-79
2024/01/27 04:30:51;;;;;;;;;;;;;;;11.31;78.68;101645.28;10305284;28;96858;-79
2024/01/27 04:35:54;;;;;;;;;;;;;;;11.28;78.99;101655.00;10307999;28;96743;-79
2024/01/27 04:40:58;;;;;;;;;;;;;;;11.25;78.73;101653.28;10317576;28;96756;-79
2024/01/27 04:46:02;;;;;;;;;;;;;;;11.18;79.35;101659.56;10319253;28;96957;-78
2024/01/27 04:51:05;;;;;;;;;;;;;;;11.30;78.36;101653.22;10307867;28;96916;-78
2024/01/27 04:56:12;;;;;;;;;;;;;;;11.34;79.02;101649.59;10307874;28;97130;-79
2024/01/27 05:01:15;;;;;;;;;;;;;;;11.38;78.03;101652.16;10317849;28;97136;-79
2024/01/27 05:06:18;;;;;;;;;;;;;;;11.34;78.00;101650.47;10299919;28;96840;-79
2024/01/27 05:11:30;;;;;;;;;;;;;;;11.34;78.57;101636.41;10292851;28;96713;-79
2024/01/27 05:16:34;;;;;;;;;;;;;;;11.39;78.23;101635.44;10327530;28;98881;-79
2024/01/27 05:21:37;;;;;;;;;;;;;;;11.41;77.90;101629.28;10307646;28;96906;-79
2024/01/27 05:26:42;;;;;;;;;;;;;;;11.45;78.12;101623.00;10298313;28;96855;-79
2024/01/27 05:31:45;;;;;;;;;;;;;;;11.38;78.52;101635.47;10299891;28;96923;-79
2024/01/27 05:36:48;;;;;;;;;;;;;;;11.33;78.15;101643.47;10315247;28;97118;-78
2024/01/27 05:41:53;;;;;;;;;;;;;;;11.31;78.15;101640.00;10298144;28;96753;-78
2024/01/27 05:46:56;;;;;;;;;;;;;;;11.27;78.30;101632.16;10296424;28;96699;-78
2024/01/27 05:51:59;;;;;;;;;;;;;;;11.28;78.73;101632.16;10314475;28;96808;-78
2024/01/27 05:57:04;;;;;;;;;;;;;;;11.25;78.85;101641.91;10297378;28;96940;-79
2024/01/27 06:02:07;;;;;;;;;;;;;;;11.19;78.65;101639.38;10305575;28;97427;-79
2024/01/27 06:07:10;;;;;;;;;;;;;;;11.18;78.81;101632.38;10305115;28;97447;-79
2024/01/27 06:12:15;;;;;;;;;;;;;;;11.10;79.25;101639.53;10336721;28;96804;-78
2024/01/27 06:17:18;;;;;;;;;;;;;;;11.07;79.19;101629.91;10297574;28;96930;-78
2024/01/27 06:22:22;;;;;;;;;;;;;;;11.04;79.43;101632.59;10299846;28;97303;-79
2024/01/27 06:27:26;;;;;;;;;;;;;;;11.01;79.60;101629.16;10296303;28;96719;-79
2024/01/27 06:32:29;;;;;;;;;;;;;;;10.95;79.58;101630.16;10295619;28;96752;-79
2024/01/27 06:37:33;;;;;;;;;;;;;;;10.99;79.41;101625.69;10315029;28;96888;-78
2024/01/27 06:42:37;;;;;;;;;;;;;;;10.89;80.43;101619.72;10337621;28;96736;-78
2024/01/27 06:47:41;;;;;;;;;;;;;;;10.86;80.38;101625.06;10297437;28;97583;-78
2024/01/27 06:52:45;;;;;;;;;;;;;;;10.90;80.20;101628.50;10299495;28;96746;-78
2024/01/27 06:57:50;;;;;;;;;;;;;;;10.87;80.23;101623.31;10295798;28;96942;-78
2024/01/27 07:02:54;;;;;;;;;;;;;;;10.91;79.78;101628.47;10315570;28;98769;-78
2024/01/27 07:07:57;;;;;;;;;;;;;;;10.97;80.06;101628.34;10295081;28;96743;-79
2024/01/27 07:13:02;;;;;;;;;;;;;;;10.93;79.90;101626.69;10296062;28;96797;-79
2024/01/27 07:18:05;;;;;;;;;;;;;;;10.92;79.72;101629.34;10311535;28;98369;-79
2024/01/27 07:23:09;;;;;;;;;;;;;;;10.88;80.10;101633.81;10294636;28;96748;-79
2024/01/27 07:28:15;;;;;;;;;;;;;;;10.98;79.11;101630.09;10296938;28;97622;-79
2024/01/27 07:33:18;;;;;;;;;;;;;;;10.88;79.52;101631.19;10287154;28;98415;-79
2024/01/27 07:38:22;;;;;;;;;;;;;;;11.02;79.26;101631.78;10293230;28;96850;-79
2024/01/27 07:43:26;;;;;;;;;;;;;;;10.92;79.77;101639.88;10326796;28;96661;-79
2024/01/27 07:48:30;;;;;;;;;;;;;;;10.93;79.51;101637.22;10292404;28;99016;-80
2024/01/27 07:53:34;;;;;;;;;;;;;;;10.99;79.49;101638.88;10294079;28;96773;-79
2024/01/27 07:58:39;;;;;;;;;;;;;;;10.91;79.60;101651.28;10293728;28;97139;-81
2024/01/27 08:03:42;;;;;;;;;;;;;;;10.98;78.99;101635.38;10292839;28;96803;-80
2024/01/27 08:08:46;;;;;;;;;;;;;;;11.01;79.31;101651.09;10292820;28;96963;-79
2024/01/27 08:13:51;;;;;;;;;;;;;;;10.96;79.10;101647.69;10291900;28;96821;-79
2024/01/27 08:18:55;;;;;;;;;;;;;;;11.06;79.09;101646.59;10298145;28;98499;-78
2024/01/27 08:23:58;;;;;;;;;;;;;;;11.12;78.64;101656.19;10307655;28;99235;-78
2024/01/27 08:29:03;;;;;;;;;;;;;;;11.13;78.75;101655.28;10295716;28;96945;-78
2024/01/27 08:34:06;;;;;;;;;;;;;;;11.22;78.16;101645.44;10285863;28;97393;-79
2024/01/27 08:39:12;;;;;;;;;;;;;;;11.29;78.29;101638.28;10290477;28;97446;-79
2024/01/27 08:44:17;;;;;;;;;;;;;;;11.33;77.67;101647.88;10287641;28;97409;-79
2024/01/27 08:49:20;;;;;;;;;;;;;;;11.35;77.41;101649.56;10290561;28;97119;-78
2024/01/27 08:54:24;;;;;;;;;;;;;;;11.39;77.40;101643.34;10291496;28;96823;-78
2024/01/27 08:59:28;;;;;;;;;;;;;;;11.53;77.04;101655.38;10289585;28;99158;-79
2024/01/27 09:04:31;;;;;;;;;;;;;;;11.55;77.26;101653.53;10288526;28;96899;-79
2024/01/27 09:09:35;;;;;;;;;;;;;;;11.59;76.81;101656.09;10290622;28;98367;-78
2024/01/27 09:19:55;;;;;;;;;;;;;;;11.69;76.46;101659.38;10302239;28;98573;-83
2024/01/27 09:24:58;;;;;;;;;;;;;;;11.72;76.48;101657.56;10305747;28;96709;-79
2024/01/27 09:30:03;;;;;;;;;;;;;;;11.80;75.98;101660.03;10321098;28;97215;-78
2024/01/27 09:35:06;;;;;;;;;;;;;;;11.90;75.61;101661.56;10303335;28;96945;-79
2024/01/27 09:40:10;;;;;;;;;;;;;;;12.05;75.18;101658.56;10303757;28;98410;-79
2024/01/27 09:45:14;;;;;;;;;;;;;;;12.00;74.60;101665.72;10291535;28;97220;-79
2024/01/27 09:50:19;;;;;;;;;;;;;;;12.11;74.67;101668.97;10289779;28;97126;-76
2024/01/27 09:55:22;;;;;;;;;;;;;;;12.25;74.11;101667.78;10299032;28;98260;-80
2024/01/27 10:00:28;;;;;;;;;;;;;;;12.36;73.68;101673.63;10301727;28;96944;-80
2024/01/27 10:05:32;;;;;;;;;;;;;;;12.47;73.41;101678.66;10300526;28;98651;-78
2024/01/27 10:10:35;;;;;;;;;;;;;;;12.74;72.91;101670.06;10305976;28;98221;-75
2024/01/27 10:15:40;;;;;;;;;;;;;;;12.80;72.32;101669.03;10319443;28;96899;-76
2024/01/27 10:20:44;;;;;;;;;;;;;;;12.90;71.93;101659.97;10305510;28;96806;-76
2024/01/27 10:25:48;;;;;;;;;;;;;;;12.97;71.28;101662.41;10309284;28;96838;-76
2024/01/27 10:30:53;;;;;;;;;;;;;;;13.05;71.39;101655.13;10299111;28;97132;-76
2024/01/27 10:35:59;;;;;;;;;;;;;;;13.04;71.32;101650.75;10297607;28;96787;-75
2024/01/27 10:41:05;;;;;;;;;;;;;;;13.23;70.12;101654.63;10293062;28;96955;-74
2024/01/27 10:46:10;;;;;;;;;;;;;;;13.25;70.76;101642.25;10304772;28;96872;-74
2024/01/27 10:51:16;;;;;;;;;;;;;;;13.29;70.43;101653.59;10295047;28;96747;-74
2024/01/27 10:56:20;;;;;;;;;;;;;;;13.40;69.94;101656.78;10328400;28;96941;-74
2024/01/27 11:01:25;;;;;;;;;;;;;;;13.46;69.56;101646.03;10311736;28;96884;-75
2024/01/27 11:06:30;;;;;;;;;;;;;;;13.42;69.10;101645.25;10312840;28;98299;-77
2024/01/27 11:11:35;;;;;;;;;;;;;;;13.64;68.57;101641.06;10306882;28;97265;-75
2024/01/27 11:16:44;;;;;;;;;;;;;;;13.60;68.74;101630.63;10298763;28;97315;-76
2024/01/27 11:21:48;;;;;;;;;;;;;;;13.81;68.40;101627.34;10301020;28;97624;-75
2024/01/27 11:27:01;;;;;;;;;;;;;;;14.01;67.63;101627.56;10306271;28;96861;-76
2024/01/27 11:32:06;;;;;;;;;;;;;;;13.92;67.63;101616.41;10293639;28;96850;-75
2024/01/27 11:37:13;;;;;;;;;;;;;;;13.94;67.85;101627.78;10293988;28;97197;-75
2024/01/27 11:42:17;;;;;;;;;;;;;;;14.19;67.17;101615.56;10301584;28;97288;-74
2024/01/27 11:47:22;;;;;;;;;;;;;;;14.28;66.64;101623.19;10321634;28;97124;-75
2024/01/27 11:52:28;;;;;;;;;;;;;;;14.22;66.68;101607.50;10296992;28;97061;-79
2024/01/27 11:57:31;;;;;;;;;;;;;;;14.43;66.52;101596.19;10304067;28;97597;-75
2024/01/27 12:02:36;;;;;;;;;;;;;;;14.44;65.86;101588.19;10309065;28;97893;-75
2024/01/27 12:07:39;;;;;;;;;;;;;;;14.48;66.48;101579.25;10293353;28;96745;-76
2024/01/27 12:12:43;;;;;;;;;;;;;;;14.55;66.13;101574.59;10314223;28;97971;-77
2024/01/27 12:17:52;;;;;;;;;;;;;;;14.62;66.36;101569.03;10298803;28;98704;-80
2024/01/27 12:23:03;;;;;;;;;;;;;;;14.75;65.88;101553.53;10290614;28;96954;-79
2024/01/27 12:28:07;;;;;;;;;;;;;;;14.60;65.80;101560.25;10291559;28;96826;-78
2024/01/27 12:33:13;;;;;;;;;;;;;;;14.76;65.99;101544.69;10296606;28;96772;-79
2024/01/27 12:38:18;;;;;;;;;;;;;;;15.01;65.42;101526.94;10292507;28;96644;-79
2024/01/27 12:43:21;;;;;;;;;;;;;;;15.10;64.38;101510.69;10291418;28;98912;-79
2024/01/27 12:48:26;;;;;;;;;;;;;;;15.16;64.58;101517.56;10291309;28;96859;-79
2024/01/27 12:53:29;;;;;;;;;;;;;;;15.21;64.33;101494.38;10321962;28;96911;-79
2024/01/27 12:58:32;;;;;;;;;;;;;;;15.35;63.84;101490.31;10292186;28;96627;-79
2024/01/27 13:03:40;;;;;;;;;;;;;;;15.30;64.10;101483.44;10291900;28;97478;-79
2024/01/27 13:08:47;;;;;;;;;;;;;;;15.39;63.89;101473.31;10298430;28;96783;-79
2024/01/27 13:13:51;;;;;;;;;;;;;;;15.71;64.02;101464.06;10291895;28;96820;-79
2024/01/27 13:18:56;;;;;;;;;;;;;;;15.84;62.95;101463.47;10290498;28;96795;-79
2024/01/27 13:23:59;;;;;;;;;;;;;;;15.98;62.84;101444.31;10293833;28;96782;-79
2024/01/27 13:29:02;;;;;;;;;;;;;;;15.98;62.45;101443.47;10274242;28;96706;-79
2024/01/27 13:34:07;;;;;;;;;;;;;;;15.99;62.24;101429.25;10293475;28;98696;-81
2024/01/27 13:39:10;;;;;;;;;;;;;;;16.37;62.10;101426.66;10288396;28;96934;-83
2024/01/27 13:44:13;;;;;;;;;;;;;;;16.23;61.77;101412.25;10298985;28;96727;-84
2024/01/27 13:49:19;;;;;;;;;;;;;;;16.99;60.59;101408.69;10317112;28;96847;-84
2024/01/27 13:54:22;;;;;;;;;;;;;;;17.73;58.83;101389.06;10296204;28;98473;-80
2024/01/27 13:59:26;;;;;;;;;;;;;;;17.58;57.91;101381.00;10307886;28;97460;-79
2024/01/27 14:04:30;;;;;;;;;;;;;;;17.65;57.73;101371.75;10296790;28;96702;-81
2024/01/27 14:09:34;;;;;;;;;;;;;;;17.62;57.17;101358.59;10303484;28;97954;-83
2024/01/27 14:14:39;;;;;;;;;;;;;;;17.28;58.15;101348.75;10294232;28;96821;-80
2024/01/27 14:19:47;;;;;;;;;;;;;;;17.72;57.46;101350.06;10297697;28;96873;-87
2024/01/27 14:24:52;;;;;;;;;;;;;;;18.27;56.51;101342.69;10291134;28;96726;-85
2024/01/27 14:29:56;;;;;;;;;;;;;;;18.02;56.94;101343.13;10305569;28;96856;-86
2024/01/27 14:35:05;;;;;;;;;;;;;;;18.23;56.04;101337.63;10315827;28;96867;-88
2024/01/27 14:40:10;;;;;;;;;;;;;;;18.26;55.58;101332.13;10307246;28;96857;-87
2024/01/27 14:45:16;;;;;;;;;;;;;;;18.37;55.48;101327.91;10303075;28;96808;-89
2024/01/27 14:50:22;;;;;;;;;;;;;;;18.02;56.08;101319.16;10311970;28;98630;-84
2024/01/27 14:55:27;;;;;;;;;;;;;;;18.21;55.90;101318.19;10307856;28;98329;-85
2024/01/27 15:00:31;;;;;;;;;;;;;;;18.05;55.77;101320.81;10295553;28;96711;-84
2024/01/27 15:05:40;;;;;;;;;;;;;;;17.88;56.47;101311.03;10294682;28;96751;-82
2024/01/27 15:10:44;;;;;;;;;;;;;;;17.73;56.91;101301.19;10293593;28;97855;-82
2024/01/27 15:15:50;;;;;;;;;;;;;;;17.79;57.24;101308.88;10289008;28;96821;-85
2024/01/27 15:20:56;;;;;;;;;;;;;;;17.52;57.78;101302.31;10293104;28;96849;-86
2024/01/27 15:26:06;;;;;;;;;;;;;;;17.39;58.43;101303.84;10294425;28;96869;-85
2024/01/27 15:31:12;;;;;;;;;;;;;;;17.33;58.38;101301.50;10293795;28;96884;-86
2024/01/27 15:36:27;;;;;;;;;;;;;;;17.21;59.11;101303.94;10276330;28;96772;-86
2024/01/27 15:41:40;;;;;;;;;;;;;;;17.39;58.33;101298.53;10298240;28;96865;-86
2024/01/27 15:47:22;;;;;;;;;;;;;;;18.07;56.63;101293.13;10162963;28;97167;-84
2024/01/27 16:22:24;;;;;;;;;;;;;;;;;;;;;
2024/01/27 16:40:14;;;;;;;;;;;;;;;;;;;;;
2024/01/27 16:46:19;;;;;;;;;;;;;;;;;;;;;
2024/01/27 16:52:10;;;;;;;;;;;;;;;16.41;60.56;101283.94;10170820;28;97420;-82
2024/01/27 16:57:28;;;;;;;;;;;;;;;16.11;61.43;101288.84;10205953;28;96962;-80
2024/01/27 17:02:34;;;;;;;;;;;;;;;16.16;61.46;101293.94;10210230;28;96763;-82
2024/01/27 17:07:38;;;;;;;;;;;;;;;16.04;61.88;101294.50;10211179;28;96736;-80
2024/01/27 17:12:45;;;;;;;;;;;;;;;15.80;62.34;101315.06;10210461;28;96781;-82
2024/01/27 17:17:49;;;;;;;;;;;;;;;15.66;63.00;101315.66;10260023;28;97319;-82
2024/01/27 17:22:53;;;;;;;;;;;;;;;15.50;63.63;101301.34;10299266;28;97731;-81
2024/01/27 17:28:01;;;;;;;;;;;;;;;15.42;64.28;101305.25;10298518;28;97815;-81
2024/01/27 17:33:10;;;;;;;;;;;;;;;15.34;64.70;101313.50;10298365;28;96782;-81
2024/01/27 17:38:17;;;;;;;;;;;;;;;15.30;65.25;101308.41;10289675;28;97478;-80
2024/01/27 17:43:24;;;;;;;;;;;;;;;15.24;64.86;101309.50;10300937;28;97538;-78
2024/01/27 17:48:27;;;;;;;;;;;;;;;15.24;64.98;101305.97;10293713;28;96932;-78
2024/01/27 17:53:31;;;;;;;;;;;;;;;15.16;65.37;101321.34;10303117;28;98559;-78
2024/01/27 17:58:36;;;;;;;;;;;;;;;15.10;65.80;101324.25;10298086;28;96857;-78
2024/01/27 18:03:39;;;;;;;;;;;;;;;15.11;66.21;101324.16;10295087;28;96977;-78
2024/01/27 18:08:42;;;;;;;;;;;;;;;15.09;66.00;101341.97;10293849;28;96879;-78
2024/01/27 18:13:48;;;;;;;;;;;;;;;15.04;66.46;101343.94;10306686;28;96793;-78
2024/01/27 18:18:52;;;;;;;;;;;;;;;15.01;66.78;101353.81;10298613;28;98438;-78
2024/01/27 18:23:55;;;;;;;;;;;;;;;15.02;66.14;101351.09;10298476;28;96855;-78
2024/01/27 18:28:59;;;;;;;;;;;;;;;14.97;66.86;101353.06;10288969;28;96911;-79
2024/01/27 18:34:02;;;;;;;;;;;;;;;14.92;66.91;101346.22;10295817;28;97079;-78
2024/01/27 18:39:06;;;;;;;;;;;;;;;14.90;66.53;101334.81;10303907;28;96735;-84
2024/01/27 18:44:13;;;;;;;;;;;;;;;14.87;67.14;101343.72;10303207;28;96846;-83
2024/01/27 18:49:17;;;;;;;;;;;;;;;14.80;67.48;101352.84;10299288;28;97089;-84
2024/01/27 18:54:24;;;;;;;;;;;;;;;14.67;67.78;101341.88;10300205;28;98568;-84
2024/01/27 18:59:29;;;;;;;;;;;;;;;14.61;67.90;101338.59;10291513;28;98597;-83
2024/01/27 19:04:33;;;;;;;;;;;;;;;14.54;68.61;101345.91;10303544;28;97214;-83
2024/01/27 19:09:38;;;;;;;;;;;;;;;14.52;68.84;101349.56;10293678;28;97830;-83
2024/01/27 19:14:45;;;;;;;;;;;;;;;14.50;69.01;101340.81;10304143;28;97526;-84
2024/01/27 19:19:48;;;;;;;;;;;;;;;14.46;69.25;101352.44;10291848;28;97150;-83
2024/01/27 19:24:51;;;;;;;;;;;;;;;14.40;69.12;101358.81;10291254;28;96895;-83
2024/01/27 19:29:56;;;;;;;;;;;;;;;14.44;69.40;101354.25;10293093;28;96934;-83
2024/01/27 19:35:01;;;;;;;;;;;;;;;14.41;69.65;101362.34;10283793;28;97227;-84
2024/01/27 19:40:05;;;;;;;;;;;;;;;14.32;69.81;101362.66;10299228;28;98638;-82
2024/01/27 19:45:10;;;;;;;;;;;;;;;14.29;70.28;101357.50;10313312;28;99546;-81
2024/01/27 19:50:13;;;;;;;;;;;;;;;14.26;70.42;101371.72;10289060;28;96788;-84
2024/01/27 19:55:29;;;;;;;;;;;;;;;14.21;70.56;101365.72;10300580;28;96792;-83
2024/01/27 20:00:55;;;;;;;;;;;;;;;14.25;70.39;101369.13;10318143;28;97164;-83
2024/01/27 20:06:18;;;;;;;;;;;;;;;14.21;70.63;101378.94;10289990;28;97198;-84
2024/01/27 20:11:27;;;;;;;;;;;;;;;14.18;70.83;101391.44;10299338;28;97043;-84
2024/01/27 20:16:42;;;;;;;;;;;;;;;14.11;71.01;101390.78;10295034;28;98524;-84
2024/01/27 20:22:18;;;;;;;;;;;;;;;14.01;71.44;101391.16;10298007;28;96735;-82
2024/01/27 20:27:32;;;;;;;;;;;;;;;13.97;71.88;101393.03;10247220;28;97125;-83
2024/01/27 20:32:44;;;;;;;;;;;;;;;13.91;72.02;101398.56;10292218;28;97318;-82
2024/01/27 20:38:17;;;;;;;;;;;;;;;13.82;72.45;101393.56;10291899;28;96692;-83
2024/01/27 20:43:25;;;;;;;;;;;;;;;13.79;72.58;101385.75;10284923;28;96756;-82
2024/01/27 20:48:50;;;;;;;;;;;;;;;13.76;72.97;101392.94;10296650;28;96949;-83
2024/01/27 20:54:02;;;;;;;;;;;;;;;13.70;72.79;101386.06;10298918;28;96951;-82
2024/01/27 20:59:07;;;;;;;;;;;;;;;13.64;73.27;101388.91;10296734;28;98668;-79
2024/01/27 21:04:10;;;;;;;;;;;;;;;13.64;73.50;101387.13;10292465;28;98183;-80
2024/01/27 21:09:14;;;;;;;;;;;;;;;13.64;73.44;101380.97;10291439;28;98659;-81
2024/01/27 21:14:18;;;;;;;;;;;;;;;13.64;73.65;101375.69;10291080;28;97667;-76
2024/01/27 21:19:22;;;;;;;;;;;;;;;13.64;73.83;101378.31;10289935;28;99118;-77
2024/01/27 21:24:25;;;;;;;;;;;;;;;13.59;73.95;101375.84;10294954;28;98132;-76
2024/01/27 21:29:30;;;;;;;;;;;;;;;13.62;73.77;101378.38;10302973;28;98931;-75
2024/01/27 21:34:33;;;;;;;;;;;;;;;13.53;73.77;101369.91;10300289;28;96952;-78
2024/01/27 21:39:36;;;;;;;;;;;;;;;13.48;73.97;101366.56;10299375;28;98501;-78
2024/01/27 21:49:49;;;;;;;;;;;;;;;13.35;74.45;101368.75;10262844;28;99154;-78
2024/01/27 21:54:53;;;;;;;;;;;;;;;13.26;75.12;101370.84;10256006;28;97037;-78
2024/01/27 21:59:56;;;;;;;;;;;;;;;13.20;75.33;101366.63;10260360;28;96821;-79
2024/01/27 22:05:00;;;;;;;;;;;;;;;13.11;75.81;101358.97;10262174;28;96901;-79
2024/01/27 22:10:03;;;;;;;;;;;;;;;13.07;76.00;101359.97;10267274;28;98376;-78
2024/01/27 22:15:07;;;;;;;;;;;;;;;13.06;76.00;101360.91;10268693;28;96854;-78
2024/01/27 22:20:12;;;;;;;;;;;;;;;12.97;76.36;101350.63;10274445;28;96942;-78
2024/01/27 22:25:15;;;;;;;;;;;;;;;12.98;76.61;101351.50;10275038;28;96926;-78
2024/01/27 22:30:18;;;;;;;;;;;;;;;13.01;76.24;101351.41;10269214;28;98260;-78
2024/01/27 22:35:23;;;;;;;;;;;;;;;12.97;75.95;101344.47;10269939;28;97025;-78
2024/01/27 22:40:26;;;;;;;;;;;;;;;12.90;76.59;101351.72;10256216;28;96824;-78
2024/01/27 22:45:29;;;;;;;;;;;;;;;12.88;76.89;101353.56;10249743;28;97315;-78
2024/01/27 22:50:33;;;;;;;;;;;;;;;12.83;77.01;101355.47;10252131;28;97192;-78
2024/01/27 22:55:36;;;;;;;;;;;;;;;12.83;76.79;101357.25;10254586;28;97563;-76
2024/01/27 23:00:40;;;;;;;;;;;;;;;12.85;76.66;101364.22;10250831;28;97069;-76
2024/01/27 23:05:45;;;;;;;;;;;;;;;12.87;77.07;101362.41;10251589;28;98569;-75
2024/01/27 23:10:48;;;;;;;;;;;;;;;12.76;76.58;101363.66;10246930;28;98033;-75
2024/01/27 23:15:52;;;;;;;;;;;;;;;12.71;76.93;101360.28;10248322;28;97617;-76
2024/01/27 23:20:56;;;;;;;;;;;;;;;12.73;77.43;101358.44;10249514;28;96925;-75
2024/01/27 23:25:59;;;;;;;;;;;;;;;12.67;77.51;101343.66;10250134;28;98707;-76
2024/01/27 23:31:03;;;;;;;;;;;;;;;12.63;77.66;101335.84;10247072;28;96911;-75
2024/01/27 23:36:08;;;;;;;;;;;;;;;12.49;78.01;101323.94;10249217;28;96932;-76
2024/01/27 23:41:11;;;;;;;;;;;;;;;12.43;78.35;101316.19;10250195;28;96744;-75
2024/01/27 23:46:14;;;;;;;;;;;;;;;12.43;78.31;101324.13;10251858;28;96893;-75
2024/01/27 23:51:22;;;;;;;;;;;;;;;12.36;78.70;101329.63;10254240;28;97595;-76
2024/01/27 23:56:26;;;;;;;;;;;;;;;12.35;78.65;101331.41;10263621;28;97060;-76
